Time;durP1;ratioP1;P1;durP2;ratioP2;P2;SDS_P1;SDS_P2;PMS_P1;PMS_P2;Temp;Humidity;BMP_temperature;BMP_pressure;BME280_temperature;BME280_humidity;BME280_pressure;Samples;Min_cycle;Max_cycle;Signal;HPM_P1;HPM_P2
2021/12/30 00:00:14;;;;;;;0.30;0.20;;;10.60;99.90;;;;;;4919081;29;20467;-85
2021/12/30 00:02:41;;;;;;;0.30;0.20;;;10.60;99.90;;;;;;4918298;29;20499;-85
2021/12/30 00:05:08;;;;;;;0.30;0.20;;;10.60;99.90;;;;;;4917664;29;20504;-85
2021/12/30 00:07:35;;;;;;;0.30;0.20;;;10.60;99.90;;;;;;4917732;29;20604;-86
2021/12/30 00:10:05;;;;;;;0.30;0.20;;;10.60;99.90;;;;;;4918036;29;20463;-85
2021/12/30 00:12:32;;;;;;;0.30;0.20;;;10.60;99.90;;;;;;4917690;29;20496;-85
2021/12/30 00:14:59;;;;;;;0.30;0.30;;;10.60;99.90;;;;;;4917899;29;20452;-85
2021/12/30 00:17:26;;;;;;;0.30;0.30;;;10.60;99.90;;;;;;4917916;29;20459;-85
2021/12/30 00:19:52;;;;;;;0.30;0.20;;;10.60;99.90;;;;;;4917560;29;20440;-85
2021/12/30 00:22:19;;;;;;;0.30;0.30;;;10.60;99.90;;;;;;4917652;29;20479;-85
2021/12/30 00:24:46;;;;;;;0.30;0.20;;;10.60;99.90;;;;;;4917812;29;20444;-85
2021/12/30 00:27:14;;;;;;;0.30;0.20;;;10.70;99.90;;;;;;4917659;29;20452;-85
2021/12/30 00:29:41;;;;;;;0.30;0.20;;;10.60;99.90;;;;;;4917758;29;20844;-85
2021/12/30 00:32:08;;;;;;;0.30;0.20;;;10.60;99.90;;;;;;4917325;29;20488;-85
2021/12/30 00:34:36;;;;;;;0.30;0.30;;;10.50;99.90;;;;;;4917663;29;20455;-85
2021/12/30 00:37:02;;;;;;;0.30;0.20;;;10.50;99.90;;;;;;4917534;29;20463;-85
2021/12/30 00:39:29;;;;;;;0.30;0.20;;;10.40;99.90;;;;;;4917625;29;20824;-85
2021/12/30 00:41:56;;;;;;;0.30;0.20;;;10.40;99.90;;;;;;4916993;29;20464;-86
2021/12/30 00:44:24;;;;;;;0.30;0.20;;;10.40;99.90;;;;;;4917526;29;20452;-86
2021/12/30 00:46:51;;;;;;;0.30;0.20;;;10.30;99.90;;;;;;4917719;29;20444;-85
2021/12/30 00:49:18;;;;;;;0.30;0.20;;;10.30;99.90;;;;;;4917544;29;20539;-86
2021/12/30 00:51:45;;;;;;;0.30;0.30;;;10.30;99.90;;;;;;4917214;29;20496;-85
2021/12/30 00:54:12;;;;;;;0.30;0.20;;;10.20;99.90;;;;;;4917181;29;20451;-86
2021/12/30 00:56:39;;;;;;;0.30;0.20;;;10.20;99.90;;;;;;4917209;29;20452;-86
2021/12/30 00:59:05;;;;;;;0.30;0.20;;;10.10;99.90;;;;;;4917364;29;20467;-86
2021/12/30 01:01:33;;;;;;;0.30;0.30;;;10.10;99.90;;;;;;4917500;29;20459;-85
2021/12/30 01:04:00;;;;;;;0.30;0.20;;;10.00;99.90;;;;;;4917359;29;20445;-86
2021/12/30 01:06:28;;;;;;;0.30;0.20;;;10.00;99.90;;;;;;4916907;29;20479;-85
2021/12/30 01:08:55;;;;;;;0.30;0.20;;;10.00;99.90;;;;;;4917396;29;20459;-85
2021/12/30 01:11:24;;;;;;;0.30;0.20;;;9.90;99.90;;;;;;4916800;29;20991;-86
2021/12/30 01:13:59;;;;;;;0.30;0.20;;;9.90;99.90;;;;;;4917365;29;20948;-85
2021/12/30 01:16:29;;;;;;;0.30;0.20;;;9.90;99.90;;;;;;4917521;29;20891;-86
2021/12/30 01:19:04;;;;;;;0.30;0.20;;;9.90;99.90;;;;;;4917108;29;20939;-85
2021/12/30 01:21:35;;;;;;;0.50;0.30;;;9.90;99.90;;;;;;4917186;29;20491;-86
2021/12/30 01:24:03;;;;;;;0.40;0.30;;;10.00;99.90;;;;;;4918024;29;20413;-85
2021/12/30 01:26:30;;;;;;;0.30;0.20;;;10.00;99.90;;;;;;4916928;29;20452;-85
2021/12/30 01:28:57;;;;;;;0.30;0.20;;;10.00;99.90;;;;;;4917129;29;20463;-85
2021/12/30 01:31:24;;;;;;;0.30;0.20;;;10.00;99.90;;;;;;4916978;29;20448;-85
2021/12/30 01:33:51;;;;;;;0.30;0.20;;;10.00;99.90;;;;;;4917099;29;20452;-85
2021/12/30 01:36:21;;;;;;;0.30;0.27;;;10.00;99.90;;;;;;4916859;29;20445;-85
2021/12/30 01:38:48;;;;;;;0.30;0.20;;;10.00;99.90;;;;;;4920254;29;20444;-85
2021/12/30 01:41:15;;;;;;;0.40;0.30;;;10.10;99.90;;;;;;4919968;29;20451;-85
2021/12/30 01:43:42;;;;;;;0.30;0.30;;;10.10;99.90;;;;;;4917403;29;20472;-85
2021/12/30 01:46:10;;;;;;;0.30;0.30;;;10.10;99.90;;;;;;4916705;29;20439;-85
2021/12/30 01:48:37;;;;;;;0.30;0.20;;;10.10;99.90;;;;;;4917029;29;20456;-85
2021/12/30 01:51:05;;;;;;;0.30;0.20;;;10.10;99.90;;;;;;4916585;29;20456;-85
2021/12/30 01:53:34;;;;;;;0.30;0.20;;;10.10;99.90;;;;;;4917784;29;20502;-85
2021/12/30 01:56:01;;;;;;;0.30;0.20;;;10.10;99.90;;;;;;4920276;29;20447;-85
2021/12/30 01:58:28;;;;;;;0.33;0.33;;;10.00;99.90;;;;;;4920461;29;20479;-85
2021/12/30 02:00:55;;;;;;;0.30;0.30;;;10.00;99.90;;;;;;4920459;29;20452;-85
2021/12/30 02:03:22;;;;;;;0.30;0.30;;;9.90;99.90;;;;;;4920070;29;21023;-85
2021/12/30 02:05:50;;;;;;;0.30;0.20;;;9.90;99.90;;;;;;4919932;29;20464;-85
2021/12/30 02:08:19;;;;;;;0.30;0.20;;;9.90;99.90;;;;;;4920314;29;20448;-85
2021/12/30 02:10:49;;;;;;;0.30;0.20;;;9.90;99.90;;;;;;4920389;29;20452;-85
2021/12/30 02:13:19;;;;;;;0.30;0.20;;;9.90;99.90;;;;;;4920124;29;20488;-85
2021/12/30 02:15:46;;;;;;;0.50;0.40;;;9.90;99.90;;;;;;4920128;29;20459;-85
2021/12/30 02:18:13;;;;;;;0.30;0.20;;;9.90;99.90;;;;;;4920039;29;20456;-85
2021/12/30 02:20:53;;;;;;;0.30;0.20;;;9.80;99.90;;;;;;4920078;29;20463;-85
2021/12/30 02:23:22;;;;;;;0.30;0.20;;;9.80;99.90;;;;;;4919647;29;20825;-85
2021/12/30 02:25:50;;;;;;;0.30;0.20;;;9.80;99.90;;;;;;4919950;29;20460;-85
2021/12/30 02:28:18;;;;;;;0.30;0.30;;;9.80;99.90;;;;;;4919956;29;20468;-85
2021/12/30 02:30:46;;;;;;;0.30;0.20;;;9.80;99.90;;;;;;4919988;29;20459;-85
2021/12/30 02:33:13;;;;;;;0.30;0.20;;;9.90;99.90;;;;;;4919689;29;20876;-85
2021/12/30 02:35:40;;;;;;;0.30;0.20;;;9.90;99.90;;;;;;4919782;29;20467;-85
2021/12/30 02:38:09;;;;;;;0.30;0.20;;;10.00;99.90;;;;;;4919552;29;20827;-85
2021/12/30 02:40:39;;;;;;;0.30;0.20;;;10.00;99.90;;;;;;4919732;29;20470;-85
2021/12/30 02:43:08;;;;;;;0.30;0.20;;;10.10;99.90;;;;;;4919620;29;20476;-85
2021/12/30 02:45:35;;;;;;;0.30;0.20;;;10.10;99.90;;;;;;4919528;29;20862;-85
2021/12/30 02:48:01;;;;;;;0.30;0.20;;;10.10;99.90;;;;;;4919533;29;20533;-85
2021/12/30 02:50:29;;;;;;;0.30;0.30;;;10.20;99.90;;;;;;4919556;29;20460;-85
2021/12/30 02:52:56;;;;;;;0.30;0.20;;;10.20;99.90;;;;;;4919129;29;20488;-85
2021/12/30 02:55:24;;;;;;;0.30;0.20;;;10.20;99.90;;;;;;4919327;29;20460;-85
2021/12/30 02:57:51;;;;;;;0.30;0.20;;;10.30;99.90;;;;;;4919318;29;20459;-88
2021/12/30 03:00:17;;;;;;;0.30;0.20;;;10.30;99.90;;;;;;4919740;29;20452;-87
2021/12/30 03:02:44;;;;;;;0.30;0.30;;;10.30;99.90;;;;;;4919339;29;20838;-85
2021/12/30 03:05:18;;;;;;;0.30;0.30;;;10.30;99.90;;;;;;4918125;29;20459;-85
2021/12/30 03:07:45;;;;;;;0.30;0.20;;;10.30;99.90;;;;;;4918888;29;20507;-85
2021/12/30 03:10:16;;;;;;;0.30;0.20;;;10.40;99.90;;;;;;4919030;29;20928;-85
2021/12/30 03:12:45;;;;;;;0.30;0.20;;;10.40;99.90;;;;;;4919665;29;20492;-87
2021/12/30 03:15:13;;;;;;;0.30;0.20;;;10.30;99.90;;;;;;4919383;29;20925;-88
2021/12/30 03:17:40;;;;;;;0.40;0.30;;;10.40;99.90;;;;;;4919563;29;20452;-88
2021/12/30 03:20:09;;;;;;;0.30;0.30;;;10.40;99.90;;;;;;4919130;29;20812;-87
2021/12/30 03:22:37;;;;;;;0.63;0.30;;;10.40;99.90;;;;;;4921101;29;20829;-84
2021/12/30 03:25:05;;;;;;;0.30;0.27;;;10.40;99.90;;;;;;4918995;29;20460;-85
2021/12/30 03:27:32;;;;;;;0.30;0.30;;;10.40;99.90;;;;;;4919259;29;20963;-85
2021/12/30 03:30:01;;;;;;;0.30;0.30;;;10.40;99.90;;;;;;4918693;29;20825;-84
2021/12/30 03:32:28;;;;;;;0.30;0.20;;;10.40;99.90;;;;;;4918821;29;20488;-85
2021/12/30 03:34:54;;;;;;;0.30;0.20;;;10.30;99.90;;;;;;4918391;29;20433;-85
2021/12/30 03:37:21;;;;;;;0.30;0.30;;;10.40;99.90;;;;;;4918333;29;20445;-84
2021/12/30 03:39:48;;;;;;;0.40;0.40;;;10.40;99.90;;;;;;4918506;29;20455;-85
2021/12/30 03:42:15;;;;;;;0.30;0.20;;;10.40;99.90;;;;;;4918241;29;20464;-85
2021/12/30 03:44:43;;;;;;;0.30;0.20;;;10.40;99.90;;;;;;4918609;29;20468;-85
2021/12/30 03:47:13;;;;;;;0.30;0.30;;;10.40;99.90;;;;;;4918432;29;20456;-85
2021/12/30 03:49:43;;;;;;;0.30;0.20;;;10.40;99.90;;;;;;4923739;29;20440;-84
2021/12/30 03:52:10;;;;;;;0.30;0.30;;;10.40;99.90;;;;;;4921024;29;20484;-85
2021/12/30 03:54:37;;;;;;;0.30;0.20;;;10.40;99.90;;;;;;4918491;29;20451;-85
2021/12/30 03:57:04;;;;;;;0.30;0.20;;;10.40;99.90;;;;;;4918205;29;20459;-85
2021/12/30 03:59:31;;;;;;;0.73;0.40;;;10.50;99.90;;;;;;4918387;29;20440;-86
2021/12/30 04:01:58;;;;;;;0.30;0.20;;;10.50;99.90;;;;;;4918181;29;20487;-85
2021/12/30 04:04:26;;;;;;;0.30;0.30;;;10.40;99.90;;;;;;4918572;29;20452;-85
2021/12/30 04:06:53;;;;;;;0.30;0.20;;;10.50;99.90;;;;;;4917898;29;20483;-85
2021/12/30 04:09:20;;;;;;;0.30;0.30;;;10.50;99.90;;;;;;4918043;29;20459;-84
2021/12/30 04:11:47;;;;;;;0.30;0.20;;;10.50;99.90;;;;;;4918237;29;20476;-88
2021/12/30 04:14:14;;;;;;;0.30;0.20;;;10.50;99.90;;;;;;4918389;29;20487;-87
2021/12/30 04:16:40;;;;;;;0.30;0.30;;;10.60;99.90;;;;;;4917511;29;20457;-87
2021/12/30 04:19:08;;;;;;;0.30;0.20;;;10.50;99.90;;;;;;4917856;29;20440;-84
2021/12/30 04:21:36;;;;;;;0.30;0.20;;;10.60;99.90;;;;;;4917815;29;20460;-85
2021/12/30 04:24:03;;;;;;;0.30;0.20;;;10.60;99.90;;;;;;4917414;29;20451;-84
2021/12/30 04:26:30;;;;;;;0.30;0.20;;;10.60;99.90;;;;;;4917694;29;20458;-85
2021/12/30 04:28:57;;;;;;;0.30;0.20;;;10.60;99.90;;;;;;4917688;29;20456;-85
2021/12/30 04:31:24;;;;;;;0.30;0.20;;;10.70;99.90;;;;;;4917536;29;20519;-85
2021/12/30 04:33:51;;;;;;;0.30;0.30;;;10.60;99.90;;;;;;4917483;29;20492;-85
2021/12/30 04:36:18;;;;;;;0.30;0.20;;;10.60;99.90;;;;;;4917210;29;20949;-84
2021/12/30 04:38:46;;;;;;;0.30;0.20;;;10.70;99.90;;;;;;4917504;29;20460;-85
2021/12/30 04:41:13;;;;;;;0.30;0.20;;;10.70;99.90;;;;;;4917842;29;20456;-87
2021/12/30 04:43:40;;;;;;;0.30;0.27;;;10.70;99.90;;;;;;4921802;29;20463;-87
2021/12/30 04:46:07;;;;;;;0.30;0.20;;;10.80;99.90;;;;;;4917832;29;20952;-88
2021/12/30 04:48:34;;;;;;;0.30;0.30;;;10.80;99.90;;;;;;4917849;29;20456;-86
2021/12/30 04:51:01;;;;;;;0.30;0.20;;;10.80;99.90;;;;;;4917450;29;20452;-85
2021/12/30 04:53:27;;;;;;;0.30;0.20;;;10.90;99.90;;;;;;4917074;29;20483;-85
2021/12/30 04:55:55;;;;;;;0.30;0.20;;;10.90;99.90;;;;;;4917420;29;20827;-85
2021/12/30 04:58:22;;;;;;;0.30;0.20;;;10.90;99.90;;;;;;4917134;29;20443;-84
2021/12/30 05:00:49;;;;;;;0.30;0.20;;;10.90;99.90;;;;;;4916954;29;20451;-84
2021/12/30 05:03:16;;;;;;;0.30;0.20;;;10.90;99.90;;;;;;4917749;29;20822;-87
2021/12/30 05:05:45;;;;;;;0.47;0.30;;;10.90;99.90;;;;;;4917807;29;20554;-87
2021/12/30 05:08:12;;;;;;;0.30;0.20;;;10.90;99.90;;;;;;4917964;29;20523;-88
2021/12/30 05:10:39;;;;;;;0.30;0.20;;;10.90;99.90;;;;;;4917657;29;20458;-87
2021/12/30 05:13:08;;;;;;;0.30;0.20;;;10.90;99.90;;;;;;4917178;29;20496;-88
2021/12/30 05:15:37;;;;;;;0.30;0.20;;;10.90;99.90;;;;;;4917711;29;20456;-87
2021/12/30 05:18:04;;;;;;;0.30;0.20;;;10.90;99.90;;;;;;4917398;29;20528;-85
2021/12/30 05:20:31;;;;;;;0.30;0.20;;;10.90;99.90;;;;;;4917819;29;20501;-85
2021/12/30 05:22:59;;;;;;;0.30;0.30;;;11.00;99.90;;;;;;4916750;29;20487;-85
2021/12/30 05:25:27;;;;;;;0.30;0.20;;;11.00;99.90;;;;;;4917059;29;20452;-85
2021/12/30 05:27:54;;;;;;;0.30;0.30;;;11.00;99.90;;;;;;4916845;29;20444;-85
2021/12/30 05:30:23;;;;;;;0.30;0.20;;;11.00;99.90;;;;;;4921184;29;20466;-85
2021/12/30 05:32:50;;;;;;;0.30;0.20;;;11.00;99.90;;;;;;4921154;29;20844;-85
2021/12/30 05:35:17;;;;;;;0.30;0.20;;;11.00;99.90;;;;;;4920604;29;20459;-85
2021/12/30 05:37:44;;;;;;;0.30;0.20;;;11.00;99.90;;;;;;4920373;29;20799;-84
2021/12/30 05:40:13;;;;;;;0.30;0.20;;;11.00;99.90;;;;;;4920556;29;20463;-85
2021/12/30 05:42:40;;;;;;;0.30;0.20;;;11.00;99.90;;;;;;4920108;29;20992;-85
2021/12/30 05:45:08;;;;;;;0.30;0.20;;;11.00;99.90;;;;;;4920116;29;20975;-85
2021/12/30 05:47:37;;;;;;;0.30;0.20;;;11.00;99.90;;;;;;4920439;29;20463;-84
2021/12/30 05:50:05;;;;;;;2.07;0.30;;;11.00;99.90;;;;;;4920394;29;20451;-85
2021/12/30 05:52:33;;;;;;;0.30;0.20;;;11.00;99.90;;;;;;4920172;29;20480;-84
2021/12/30 05:54:59;;;;;;;0.30;0.20;;;11.00;99.90;;;;;;4920257;29;20452;-85
2021/12/30 05:57:26;;;;;;;0.30;0.20;;;11.00;99.90;;;;;;4920172;29;20787;-85
2021/12/30 05:59:53;;;;;;;0.30;0.20;;;11.00;99.90;;;;;;4920287;29;20452;-85
2021/12/30 06:02:20;;;;;;;0.30;0.20;;;11.00;99.90;;;;;;4920159;29;20510;-84
2021/12/30 06:04:48;;;;;;;0.30;0.20;;;11.00;99.90;;;;;;4919944;29;20448;-85
2021/12/30 06:07:15;;;;;;;0.30;0.20;;;11.00;99.90;;;;;;4919765;29;20503;-84
2021/12/30 06:09:42;;;;;;;0.30;0.20;;;11.00;99.90;;;;;;4920159;29;20916;-84
2021/12/30 06:12:09;;;;;;;0.30;0.20;;;11.00;99.90;;;;;;4919666;29;21055;-84
2021/12/30 06:14:36;;;;;;;0.30;0.20;;;11.00;99.90;;;;;;4919789;29;20483;-85
2021/12/30 06:17:03;;;;;;;0.30;0.20;;;11.00;99.90;;;;;;4919842;29;20808;-84
2021/12/30 06:19:30;;;;;;;0.30;0.20;;;11.00;99.90;;;;;;4919611;29;20451;-84
2021/12/30 06:21:58;;;;;;;0.30;0.20;;;11.00;99.90;;;;;;4919595;29;20471;-84
2021/12/30 06:24:25;;;;;;;0.30;0.20;;;11.10;99.90;;;;;;4919897;29;20475;-85
2021/12/30 06:26:52;;;;;;;0.30;0.20;;;11.00;99.90;;;;;;4919615;29;20466;-85
2021/12/30 06:29:18;;;;;;;0.30;0.20;;;11.00;99.90;;;;;;4919516;29;20452;-85
2021/12/30 06:31:45;;;;;;;0.30;0.23;;;11.00;99.90;;;;;;4919466;29;21003;-87
2021/12/30 06:34:12;;;;;;;0.30;0.20;;;11.00;99.90;;;;;;4919978;29;21038;-87
2021/12/30 06:36:39;;;;;;;0.30;0.20;;;10.90;99.90;;;;;;4919735;29;20444;-87
2021/12/30 06:39:07;;;;;;;0.30;0.20;;;10.90;99.90;;;;;;4920022;29;20460;-87
2021/12/30 06:41:34;;;;;;;0.30;0.20;;;10.90;99.90;;;;;;4919038;29;20452;-87
2021/12/30 06:44:01;;;;;;;0.30;0.20;;;11.00;99.90;;;;;;4919717;29;20455;-87
2021/12/30 06:46:28;;;;;;;0.30;0.20;;;11.00;99.90;;;;;;4919806;29;20827;-87
2021/12/30 06:48:55;;;;;;;0.30;0.20;;;11.00;99.90;;;;;;4919965;29;20466;-88
2021/12/30 06:51:24;;;;;;;0.30;0.20;;;11.00;99.90;;;;;;4919862;29;20455;-88
2021/12/30 06:53:54;;;;;;;0.30;0.20;;;11.00;99.90;;;;;;4920321;29;20480;-88
2021/12/30 06:56:23;;;;;;;0.30;0.20;;;11.00;99.90;;;;;;4920103;29;20826;-89
2021/12/30 06:58:50;;;;;;;0.30;0.20;;;11.00;99.90;;;;;;4920125;29;20463;-89
2021/12/30 07:01:17;;;;;;;0.30;0.20;;;11.00;99.90;;;;;;4920195;29;20991;-89
2021/12/30 07:03:43;;;;;;;0.30;0.20;;;10.90;99.90;;;;;;4920137;29;20472;-89
2021/12/30 07:06:10;;;;;;;0.30;0.20;;;11.00;99.90;;;;;;4919074;29;20476;-86
2021/12/30 07:08:37;;;;;;;0.30;0.20;;;11.00;99.90;;;;;;4919101;29;20444;-85
2021/12/30 07:11:04;;;;;;;0.30;0.20;;;11.00;99.90;;;;;;4919115;29;20948;-85
2021/12/30 07:13:32;;;;;;;0.30;0.20;;;11.00;99.90;;;;;;4918568;29;20495;-85
2021/12/30 07:15:59;;;;;;;0.30;0.20;;;11.00;99.90;;;;;;4918920;29;20474;-86
2021/12/30 07:18:26;;;;;;;0.30;0.20;;;11.00;99.90;;;;;;4919082;29;20460;-88
2021/12/30 07:20:52;;;;;;;0.30;0.20;;;11.00;99.90;;;;;;4919123;29;20448;-88
2021/12/30 07:23:19;;;;;;;0.30;0.20;;;11.00;99.90;;;;;;4919128;29;20464;-88
2021/12/30 07:25:46;;;;;;;0.30;0.20;;;11.00;99.90;;;;;;4919586;29;20499;-88
2021/12/30 07:28:13;;;;;;;0.30;0.20;;;11.00;99.90;;;;;;4919093;29;20471;-85
2021/12/30 07:30:41;;;;;;;0.30;0.30;;;11.00;99.90;;;;;;4918676;29;20443;-85
2021/12/30 07:33:08;;;;;;;0.30;0.20;;;11.10;99.90;;;;;;4918559;29;20475;-85
2021/12/30 07:35:36;;;;;;;0.30;0.20;;;11.00;99.90;;;;;;4918767;29;20447;-88
2021/12/30 07:38:03;;;;;;;0.30;0.20;;;11.10;99.90;;;;;;4919248;29;20455;-88
2021/12/30 07:40:31;;;;;;;0.30;0.30;;;11.00;99.90;;;;;;4918959;29;20448;-88
2021/12/30 07:42:58;;;;;;;0.30;0.30;;;11.10;99.90;;;;;;4918744;29;20464;-88
2021/12/30 07:45:24;;;;;;;0.30;0.20;;;11.10;99.90;;;;;;4919042;29;20801;-88
2021/12/30 07:47:53;;;;;;;0.30;0.30;;;11.10;99.90;;;;;;4919012;29;20452;-88
2021/12/30 07:50:20;;;;;;;0.30;0.30;;;11.10;99.90;;;;;;4919187;29;20844;-85
2021/12/30 07:52:47;;;;;;;0.30;0.20;;;11.10;99.90;;;;;;4918384;29;20476;-88
2021/12/30 07:55:15;;;;;;;0.30;0.30;;;11.10;99.90;;;;;;4924280;29;20483;-88
2021/12/30 07:57:43;;;;;;;0.30;0.20;;;11.10;99.90;;;;;;4928372;29;20452;-87
2021/12/30 08:00:12;;;;;;;0.30;0.20;;;11.10;99.90;;;;;;4926884;29;20449;-88
2021/12/30 08:02:41;;;;;;;0.30;0.20;;;11.10;99.90;;;;;;4918373;29;20460;-88
2021/12/30 08:05:10;;;;;;;0.30;0.30;;;11.10;99.90;;;;;;4918593;29;20456;-87
2021/12/30 08:07:37;;;;;;;0.30;0.30;;;11.20;99.90;;;;;;4918132;29;20468;-87
2021/12/30 08:10:10;;;;;;;0.30;0.20;;;11.20;99.90;;;;;;4918640;29;20468;-91
2021/12/30 08:12:37;;;;;;;0.40;0.30;;;11.20;99.90;;;;;;4918971;29;20472;-89
2021/12/30 08:15:06;;;;;;;0.30;0.30;;;11.30;99.90;;;;;;4918725;29;20495;-89
2021/12/30 08:17:33;;;;;;;0.30;0.20;;;11.30;99.90;;;;;;4918215;29;20532;-85
2021/12/30 08:19:59;;;;;;;0.30;0.30;;;11.40;99.90;;;;;;4917980;29;20456;-85
2021/12/30 08:22:27;;;;;;;0.30;0.20;;;11.40;99.90;;;;;;4917914;29;20507;-85
2021/12/30 08:24:54;;;;;;;0.30;0.20;;;11.40;99.90;;;;;;4917591;29;20813;-85
2021/12/30 08:27:21;;;;;;;0.30;0.27;;;11.40;99.90;;;;;;4917914;29;20952;-87
2021/12/30 08:29:48;;;;;;;0.30;0.20;;;11.40;99.90;;;;;;4918126;29;20448;-87
2021/12/30 08:32:16;;;;;;;0.80;0.40;;;11.50;99.90;;;;;;4917898;29;20479;-87
2021/12/30 08:34:44;;;;;;;0.30;0.20;;;11.50;99.90;;;;;;4917665;29;20587;-87
2021/12/30 08:37:12;;;;;;;0.30;0.20;;;11.50;99.90;;;;;;4917623;29;20409;-87
2021/12/30 08:39:40;;;;;;;0.30;0.30;;;11.50;99.90;;;;;;4917672;29;21019;-87
2021/12/30 08:42:18;;;;;;;0.30;0.20;;;11.50;99.90;;;;;;4917569;29;20480;-87
2021/12/30 08:44:45;;;;;;;0.30;0.20;;;11.60;99.90;;;;;;4917621;29;20962;-87
2021/12/30 08:47:12;;;;;;;0.40;0.30;;;11.60;99.90;;;;;;4917408;29;20929;-87
2021/12/30 08:49:41;;;;;;;0.30;0.20;;;11.60;99.90;;;;;;4917610;29;20436;-87
2021/12/30 08:52:09;;;;;;;0.30;0.20;;;11.60;99.90;;;;;;4917829;29;20856;-87
2021/12/30 08:54:36;;;;;;;0.30;0.20;;;11.60;99.90;;;;;;4917668;29;20524;-86
2021/12/30 08:57:05;;;;;;;0.30;0.20;;;11.60;99.90;;;;;;4917454;29;20456;-87
2021/12/30 08:59:32;;;;;;;0.30;0.20;;;11.60;99.90;;;;;;4917630;29;20534;-87
2021/12/30 09:01:59;;;;;;;0.30;0.20;;;11.60;99.90;;;;;;4917608;29;21007;-87
2021/12/30 09:04:26;;;;;;;0.30;0.30;;;11.60;99.90;;;;;;4917074;29;20970;-87
2021/12/30 09:06:53;;;;;;;0.30;0.30;;;11.70;99.90;;;;;;4917124;29;20551;-87
2021/12/30 09:09:20;;;;;;;0.30;0.20;;;11.70;99.90;;;;;;4917267;29;20463;-86
2021/12/30 09:11:47;;;;;;;0.30;0.20;;;11.70;99.90;;;;;;4917285;29;20480;-86
2021/12/30 09:14:16;;;;;;;0.30;0.30;;;11.80;99.90;;;;;;4917082;29;20490;-85
2021/12/30 09:16:43;;;;;;;0.30;0.20;;;11.90;99.90;;;;;;4917046;29;20986;-86
2021/12/30 09:19:10;;;;;;;0.30;0.30;;;12.00;99.90;;;;;;4917281;29;20830;-86
2021/12/30 09:21:38;;;;;;;0.30;0.30;;;12.10;99.90;;;;;;4916878;29;20436;-86
2021/12/30 09:24:06;;;;;;;0.30;0.20;;;12.20;99.90;;;;;;4916942;29;20441;-86
2021/12/30 09:26:32;;;;;;;0.30;0.20;;;12.30;99.90;;;;;;4916843;29;20440;-86
2021/12/30 09:28:59;;;;;;;0.30;0.30;;;12.40;99.90;;;;;;4917085;29;20460;-86
2021/12/30 09:31:28;;;;;;;0.30;0.30;;;12.60;99.90;;;;;;4916711;29;20440;-86
2021/12/30 09:33:54;;;;;;;0.30;0.30;;;12.70;99.90;;;;;;4916973;29;20440;-87
2021/12/30 09:36:22;;;;;;;0.30;0.20;;;12.90;99.90;;;;;;4917240;29;20456;-89
2021/12/30 09:38:51;;;;;;;0.30;0.30;;;12.90;99.90;;;;;;4917625;29;20940;-89
2021/12/30 09:41:18;;;;;;;0.40;0.30;;;13.10;99.90;;;;;;4917577;29;20471;-88
2021/12/30 09:43:45;;;;;;;0.30;0.30;;;13.20;99.90;;;;;;4917476;29;20483;-88
2021/12/30 09:46:12;;;;;;;0.30;0.30;;;13.30;99.90;;;;;;4916918;29;20448;-86
2021/12/30 09:48:40;;;;;;;0.30;0.20;;;13.40;99.90;;;;;;4916838;29;20440;-86
2021/12/30 09:51:08;;;;;;;0.30;0.27;;;13.40;99.90;;;;;;4917337;29;20456;-86
2021/12/30 09:53:35;;;;;;;0.30;0.20;;;13.60;99.90;;;;;;4917514;29;20468;-86
2021/12/30 09:56:01;;;;;;;0.30;0.20;;;13.80;99.90;;;;;;4916947;29;20487;-86
2021/12/30 09:58:29;;;;;;;0.30;0.20;;;14.10;99.90;;;;;;4917139;29;20451;-88
2021/12/30 10:00:56;;;;;;;0.30;0.27;;;14.20;99.90;;;;;;4918053;29;20492;-87
2021/12/30 10:03:23;;;;;;;0.30;0.30;;;14.20;99.90;;;;;;4917231;29;20476;-87
2021/12/30 10:05:53;;;;;;;0.30;0.30;;;14.20;99.90;;;;;;4916831;29;20936;-87
2021/12/30 10:08:23;;;;;;;0.30;0.30;;;14.10;99.90;;;;;;4917251;29;20463;-87
2021/12/30 10:10:52;;;;;;;0.30;0.30;;;14.00;99.90;;;;;;4917270;29;20428;-87
2021/12/30 10:13:24;;;;;;;0.30;0.23;;;13.70;99.90;;;;;;4917018;29;20476;-85
2021/12/30 10:15:53;;;;;;;0.40;0.30;;;13.60;99.90;;;;;;4918549;29;20480;-89
2021/12/30 10:18:23;;;;;;;0.40;0.30;;;13.40;99.90;;;;;;4920171;29;20932;-81
2021/12/30 10:20:52;;;;;;;0.40;0.30;;;13.40;99.90;;;;;;4919824;29;20487;-84
2021/12/30 10:23:20;;;;;;;0.30;0.20;;;13.40;99.90;;;;;;4919931;29;20507;-86
2021/12/30 10:25:49;;;;;;;0.40;0.30;;;13.30;99.90;;;;;;4920240;29;20455;-87
2021/12/30 10:28:30;;;;;;;0.30;0.30;;;13.20;99.90;;;;;;4919999;29;20466;-87
2021/12/30 10:31:00;;;;;;;0.30;0.30;;;13.20;99.90;;;;;;4920141;29;20534;-86
2021/12/30 10:33:28;;;;;;;0.30;0.20;;;13.20;99.90;;;;;;4920089;29;20457;-87
2021/12/30 10:35:58;;;;;;;0.40;0.40;;;13.20;99.90;;;;;;4919843;29;20475;-86
2021/12/30 10:38:29;;;;;;;0.30;0.30;;;13.20;99.90;;;;;;4919989;29;20441;-87
2021/12/30 10:41:01;;;;;;;0.30;0.30;;;13.30;99.90;;;;;;4919887;29;20432;-87
2021/12/30 10:43:32;;;;;;;0.30;0.30;;;13.30;99.90;;;;;;4919694;29;20475;-86
2021/12/30 10:46:18;;;;;;;0.50;0.30;;;13.30;99.90;;;;;;4919853;29;20936;-86
2021/12/30 10:49:00;;;;;;;0.30;0.30;;;13.40;99.90;;;;;;4919765;29;20443;-86
2021/12/30 10:51:38;;;;;;;0.30;0.20;;;13.50;99.90;;;;;;4919524;29;20441;-86
2021/12/30 10:54:19;;;;;;;0.30;0.20;;;13.50;99.90;;;;;;4919327;29;20413;-86
2021/12/30 10:56:48;;;;;;;0.30;0.20;;;13.50;99.90;;;;;;4919892;29;20913;-86
2021/12/30 10:59:19;;;;;;;0.30;0.30;;;13.40;99.90;;;;;;4920129;29;20448;-87
2021/12/30 11:01:49;;;;;;;0.30;0.30;;;13.40;99.90;;;;;;4919591;29;20482;-86
2021/12/30 11:04:16;;;;;;;0.30;0.20;;;13.50;99.90;;;;;;4919350;29;20522;-87
2021/12/30 11:06:46;;;;;;;0.30;0.30;;;13.50;99.90;;;;;;4919192;29;20491;-86
2021/12/30 11:09:19;;;;;;;0.30;0.20;;;13.70;99.90;;;;;;4919343;29;20462;-86
2021/12/30 11:11:49;;;;;;;0.30;0.30;;;13.80;99.90;;;;;;4919267;29;20553;-85
2021/12/30 11:14:18;;;;;;;0.30;0.20;;;13.90;99.90;;;;;;4919005;29;20437;-86
2021/12/30 11:17:09;;;;;;;0.60;0.30;;;14.00;99.90;;;;;;4919334;29;20444;-86
2021/12/30 11:19:40;;;;;;;0.30;0.20;;;14.10;99.90;;;;;;4919725;29;20448;-87
2021/12/30 11:22:12;;;;;;;0.30;0.20;;;14.00;99.90;;;;;;4919009;29;20456;-87
2021/12/30 11:24:40;;;;;;;0.40;0.30;;;14.00;99.90;;;;;;4919395;29;20432;-86
2021/12/30 11:27:10;;;;;;;0.30;0.20;;;14.10;99.90;;;;;;4918222;29;20892;-86
2021/12/30 11:29:38;;;;;;;0.30;0.20;;;14.10;99.90;;;;;;4919629;29;20527;-86
2021/12/30 11:32:08;;;;;;;0.30;0.20;;;14.00;99.90;;;;;;4918727;29;20527;-84
2021/12/30 11:34:36;;;;;;;0.30;0.20;;;14.00;99.90;;;;;;4918083;29;20504;-85
2021/12/30 11:37:04;;;;;;;0.30;0.20;;;14.10;99.90;;;;;;4918422;29;20520;-85
2021/12/30 11:39:35;;;;;;;0.30;0.30;;;14.20;99.90;;;;;;4918253;29;20535;-85
2021/12/30 11:42:07;;;;;;;0.30;0.20;;;14.20;99.90;;;;;;4917973;29;20499;-84
2021/12/30 11:44:40;;;;;;;0.30;0.20;;;14.20;99.90;;;;;;4918127;29;20449;-84
2021/12/30 11:47:31;;;;;;;0.30;0.20;;;14.10;99.90;;;;;;4918212;29;20500;-84
2021/12/30 11:50:01;;;;;;;0.30;0.20;;;14.10;99.90;;;;;;4918560;29;20452;-84
2021/12/30 11:53:03;;;;;;;0.30;0.20;;;14.00;99.90;;;;;;4917997;29;20860;-84
2021/12/30 11:55:59;;;;;;;0.30;0.20;;;14.00;99.90;;;;;;4915642;29;20909;-84
2021/12/30 11:58:53;;;;;;;1.03;0.53;;;14.10;99.90;;;;;;4915781;29;20475;-84
2021/12/30 12:01:42;;;;;;;0.30;0.30;;;14.20;99.90;;;;;;4903854;29;20448;-84
2021/12/30 12:04:27;;;;;;;0.30;0.30;;;14.20;99.90;;;;;;4918398;29;20471;-84
2021/12/30 12:07:03;;;;;;;0.30;0.20;;;14.30;99.90;;;;;;4917421;29;20614;-84
2021/12/30 12:09:36;;;;;;;0.30;0.20;;;14.30;99.90;;;;;;4918084;29;20456;-84
2021/12/30 12:12:07;;;;;;;0.50;0.30;;;14.30;99.90;;;;;;4917794;29;20567;-84
2021/12/30 12:14:38;;;;;;;0.33;0.30;;;14.20;99.90;;;;;;4918075;29;20523;-84
2021/12/30 12:17:07;;;;;;;0.30;0.20;;;14.20;99.90;;;;;;4917961;29;20527;-84
2021/12/30 12:19:40;;;;;;;0.30;0.20;;;14.20;99.90;;;;;;4917808;29;20440;-84
2021/12/30 12:22:09;;;;;;;0.30;0.20;;;14.20;99.90;;;;;;4918173;29;20465;-84
2021/12/30 12:24:40;;;;;;;0.30;0.20;;;14.20;99.90;;;;;;4917664;29;20432;-84
2021/12/30 12:27:12;;;;;;;0.30;0.20;;;14.20;99.90;;;;;;4917867;29;20449;-84
2021/12/30 12:29:46;;;;;;;0.30;0.30;;;14.20;99.90;;;;;;4924318;29;20509;-84
2021/12/30 12:32:15;;;;;;;0.30;0.30;;;14.20;99.90;;;;;;4928974;29;20482;-84
2021/12/30 12:34:45;;;;;;;0.30;0.30;;;14.10;99.90;;;;;;4918653;29;20475;-83
2021/12/30 12:37:49;;;;;;;0.30;0.30;;;14.10;99.90;;;;;;4917492;29;20492;-83
2021/12/30 12:40:30;;;;;;;0.40;0.40;;;14.00;99.90;;;;;;4917515;29;20455;-84
2021/12/30 12:43:02;;;;;;;0.30;0.30;;;14.10;99.90;;;;;;4917297;29;20840;-84
2021/12/30 12:45:36;;;;;;;0.30;0.30;;;14.00;99.90;;;;;;4917041;29;20451;-82
2021/12/30 12:48:28;;;;;;;0.67;0.40;;;14.00;99.90;;;;;;4917479;29;20444;-82
2021/12/30 12:50:57;;;;;;;0.30;0.30;;;14.00;99.90;;;;;;4917245;29;20458;-85
2021/12/30 12:53:42;;;;;;;0.30;0.30;;;14.00;99.90;;;;;;4917059;29;20475;-83
2021/12/30 12:56:11;;;;;;;0.30;0.27;;;14.00;99.90;;;;;;4917343;29;20840;-82